AirNav   Phillips 66 Aviation Fuel
 
 327 users online  

B06 Basin Harbor Airport
Vergennes, Vermont, USA

GOING TO VERGENNES?


FAA INFORMATION EFFECTIVE 25 APRIL 2019

Location

FAA Identifier: B06
Lat/Long: 44-11-45.1910N / 073-20-58.4510W
44-11.753183N / 073-20.974183W
44.1958864 / -73.3495697
(estimated)
Elevation: 132 ft. / 40.2 m (surveyed)
Variation: 15W (1985)
From city: 4 miles NW of VERGENNES, VT
Time zone: UTC -4 (UTC -5 during Standard Time)
Zip code: 05491

Airport Operations

Airport use: Open to the public
Activation date: 07/1956
Control tower: no
ARTCC: BOSTON CENTER
FSS: BURLINGTON FLIGHT SERVICE STATION
NOTAMs facility: BTV (NOTAM-D service available)
Attendance: MAY 15-OCT 15 SR-SS
Wind indicator: yes
Segmented circle: no

Airport Communications

CTAF/UNICOM: 122.8
WX ASOS at 6B0 (17 nm SE): 118.575 (802-388-0255)
WX ASOS at BTV (19 nm NE): 123.8 (802-657-4490)

Nearby radio navigation aids

VOR radial/distance  VOR name  Freq  Var
BTVr226/14.0BURLINGTON VOR/DME117.5015W
SLKr121/38.4SARANAC LAKE VOR/DME109.2014W
MPVr296/39.3MONTPELIER VOR/DME110.8016W

 
NDB name  Hdg/Dist  Freq  Var  ID
SMUTO345/33.922115WDYO -.. -.-- ---

Airport Services

Airframe service: NONE
Powerplant service: NONE

Runway Information

Runway 2/20

Dimensions: 3000 x 90 ft. / 914 x 27 m
Surface: turf, in good condition
Runway edge markings: RWY 20 THRESHOLD OUTLINED WITH ORANGE BARRELS AND TURF CONES.
RUNWAY 2  RUNWAY 20
Traffic pattern: leftleft
Obstructions: 10 ft. trees, 34 ft. from runway, 3:1 slope to clear47 ft. trees, 408 ft. from runway, 4 ft. right of centerline, 8:1 slope to clear

Airport Ownership and Management from official FAA records

Ownership: Privately-owned
Owner: BEACH PROPERTIES INC
BASIN HABOR AIRPORT
VERGENNES, VT 05491
Phone 802-475-2311
Manager: ROBERT BEACH, JR.
BASIN HARBOR AIRPORT
VERGENNES, VT 05491
Phone 802-475-2311

Airport Operational Statistics

Aircraft operations: avg 23/week *
96% transient general aviation
4% military
* for 12-month period ending 31 July 2017

Additional Remarks

ARPT CLSD FM LATE FALL TO EARLY SPRING - CTC AMGR 802-475-2311.
GLIDERS ON AND INVOF ARPT.
RY SFC SOFT AFT HEAVY RAIN. CALL FOR CONDITIONS.
PRIMARY SFC AREA DEFICIENT, CLUTTERED WITH 50' TREES EITHER SIDE OF SOUTH HALF OF RWY.
BIRDS ON & INVOF ARPT.

Instrument Procedures

There are no published instrument procedures at B06.

Some nearby airports with instrument procedures:

KBTV - Burlington International Airport (19 nm NE)
4B6 - Ticonderoga Municipal Airport (19 nm S)
KLKP - Lake Placid Airport (27 nm W)
KPBG - Plattsburgh International Airport (28 nm N)
KMPV - Edward F Knapp State Airport (34 nm E)
 
Loc | Ops | Rwys | IFR | FBO | Links
Com | Nav | Svcs | Stats | Notes
Area around B06 (Basin Harbor Airport)
 
Road maps at: MapQuest Bing Google
 
Aerial photo
WARNING: Photo may not be current or correct
Aerial photo of B06 (Basin Harbor Airport)
Photo by Dick Bicknell

Do you have a better or more recent aerial photo of Basin Harbor Airport that you would like to share? If so, please send us your photo.

 
Sectional chart

 
Airport distance calculator
Flying to Basin Harbor Airport? Find the distance to fly.

From to B06

Sunrise and sunset
Times for 22-May-2019
 Local
(UTC-4)
 Zulu
(UTC)
Morning civil twilight04:4608:46
Sunrise05:2109:21
Sunset20:1900:19
Evening civil twilight20:5400:54

Current date and time
Zulu (UTC)  22-May-2019 08:24:22
Local (UTC-4)  22-May-2019 04:24:22
 
METAR
K6B0 
17nm SE 
220755Z AUTO 00000KT 10SM CLR 05/04 A3014 RMK AO2 T00530040
KBTV 
18nm NE 
220754Z AUTO 35004KT 10SM CLR 09/04 A3014 RMK AO2 SLP207 T00890039
KPBG 
28nm N 
220753Z AUTO 33007KT 10SM CLR 10/03 A3015 RMK AO2 SLP209 T01000028
TAF
KBTV 
18nm NE 
220530Z 2206/2306 35006KT P6SM FEW080 FM221300 33006KT P6SM SKC FM230400 VRB03KT P6SM BKN120
NOTAMs
Click for the latest NOTAMs
NOTAMs are issued by the DoD/FAA and will open in a separate window not controlled by AirNav.

 

 
 

Would you like to see your business listed on this page?

 If your business provides an interesting product or service to pilots, flight crews, aircraft, or users of the Basin Harbor Airport, you should consider listing it here.  To start the listing process, click on the button below
 
Add a business
 

Other Pages about Basin Harbor Airport

aviation.vermont.gov/...
 
Update a link
 
Copyright © AirNav, LLC. All rights reserved. Privacy Policy  Contact